SV2BZQ-2 Thessalonik GR current weather conditions

sailwx.info

Wind from 285 at 3 knots gusting 7

Air temperature 16.7° C
Dewpoint 14.1° C

Last reported at 2017-Apr-30 18:08 UTC.
Time now 2017-Apr-30 18:46 UTC

Location: N 40°41' E 022°51'.
View on Google Maps.

See reports from other nearby stations

  
Tides and Currents Weather Stations Pressure Air Temp Water Temp Dewpoint Dewpoint Depression Visibility Wind Speed Wind Dir Waves Ship Positions
date/time (UTC)wind fromknots sea level pressurealtimeterstation pressurevisibilityair tempwater tempwave heightnotes
2017-Apr-30 18:08 285 3 gusting 7 16.7
2017-Apr-30 18:04 276 2 gusting 7 16.7
2017-Apr-30 17:58 281 1 gusting 6 16.7
2017-Apr-30 17:52 304 2 gusting 7 16.7
2017-Apr-30 17:49 294 2 gusting 6 16.7
2017-Apr-30 17:43 287 2 gusting 6 16.7
2017-Apr-30 17:39 309 2 gusting 6 16.7
2017-Apr-30 17:33 287 3 gusting 6 16.7
2017-Apr-30 17:30 307 1 gusting 6 16.7
2017-Apr-30 17:23 286 5 gusting 9 17.2
2017-Apr-30 17:18 294 6 gusting 9 17.2
2017-Apr-30 17:14 293 5 gusting 9 16.7
2017-Apr-30 17:10 283 5 gusting 10 17.2
2017-Apr-30 17:04 325 5 gusting 10 17.2
2017-Apr-30 16:58 328 4 gusting 7 17.2
2017-Apr-30 16:54 323 4 gusting 7 17.8
2017-Apr-30 16:49 299 3 gusting 7 17.8
2017-Apr-30 16:44 335 4 gusting 9 17.8
2017-Apr-30 16:39 327 4 gusting 9 17.8
2017-Apr-30 16:34 335 3 gusting 7 17.8
2017-Apr-30 16:29 317 3 gusting 7 17.8
2017-Apr-30 16:24 317 4 gusting 7 17.8
2017-Apr-30 16:19 296 4 gusting 8 17.8
2017-Apr-30 16:14 333 4 gusting 8 17.8
2017-Apr-30 16:09 322 5 gusting 9 17.8
2017-Apr-30 16:04 325 5 gusting 9 17.8
2017-Apr-30 15:59 331 6 gusting 10 17.8
2017-Apr-30 15:54 330 6 gusting 13 17.8
2017-Apr-30 15:50 295 6 gusting 13 17.8
2017-Apr-30 15:44 317 6 gusting 10 18.3
2017-Apr-30 15:38 346 5 gusting 8 18.3
2017-Apr-30 15:33 308 6 gusting 10 18.3
2017-Apr-30 15:30 289 5 gusting 10 18.3
2017-Apr-30 15:23 286 5 gusting 11 18.3
2017-Apr-30 15:19 310 6 gusting 11 18.3
2017-Apr-30 15:13 319 5 gusting 10 18.3
2017-Apr-30 15:09 309 5 gusting 10 18.3
2017-Apr-30 15:03 317 6 gusting 10 18.3
2017-Apr-30 14:59 323 5 gusting 9 18.3
2017-Apr-30 14:55 331 4 gusting 7 18.9
2017-Apr-30 14:49 296 3 gusting 7 18.3
2017-Apr-30 14:44 330 3 gusting 7 18.3
2017-Apr-30 14:38 323 5 gusting 9 18.3
2017-Apr-30 14:34 319 5 gusting 9 18.3
2017-Apr-30 14:28 331 4 gusting 7 18.3
2017-Apr-30 14:24 303 4 gusting 8 18.3
2017-Apr-30 14:18 339 4 gusting 8 18.3
2017-Apr-30 14:14 326 2 gusting 8 18.3
2017-Apr-30 14:09 298 5 gusting 9 18.3
2017-Apr-30 14:03 295 5 gusting 8 18.3
2017-Apr-30 13:59 328 5 gusting 9 18.3
2017-Apr-30 13:53 323 3 gusting 9 18.9
2017-Apr-30 13:49 303 3 gusting 9 18.9
2017-Apr-30 13:45 321 4 gusting 9 18.9
2017-Apr-30 13:39 337 4 gusting 8 19.4
2017-Apr-30 13:34 348 4 gusting 8 19.4
2017-Apr-30 13:28 304 5 gusting 10 19.4
2017-Apr-30 13:24 350 5 gusting 10 19.4
2017-Apr-30 13:18 323 4 gusting 8 20.0
2017-Apr-30 13:14 311 5 gusting 9 20.0
2017-Apr-30 13:08 305 4 gusting 9 20.0
2017-Apr-30 13:04 340 4 gusting 9 20.6
2017-Apr-30 13:00 327 4 gusting 9 20.6
2017-Apr-30 12:54 323 4 gusting 9 20.6
2017-Apr-30 12:50 311 4 gusting 9 20.6
2017-Apr-30 12:44 300 2 gusting 9 20.6
2017-Apr-30 12:40 331 1 gusting 6 20.0
2017-Apr-30 12:34 276 1 gusting 6 20.0
2017-Apr-30 12:29 355 0 gusting 5 19.4
2017-Apr-30 12:23 219 19.4
2017-Apr-30 12:19 196 18.9
2017-Apr-30 12:13 196 18.9
2017-Apr-30 12:09 196 18.3
2017-Apr-30 12:03 105 18.3
2017-Apr-30 11:58 105 17.8
2017-Apr-30 11:54 073 17.8
2017-Apr-30 11:48 071 17.2
2017-Apr-30 11:44 071 17.2
2017-Apr-30 11:40 071 17.2
2017-Apr-30 11:34 070 17.2
2017-Apr-30 11:30 070 0 gusting 6 17.2
2017-Apr-30 11:24 065 0 gusting 6 16.7
2017-Apr-30 11:19 059 0 gusting 5 16.7
2017-Apr-30 11:13 076 0 gusting 4 16.7
2017-Apr-30 11:09 065 0 gusting 6 16.7
2017-Apr-30 11:03 015 0 gusting 6 17.2
2017-Apr-30 10:59 046 17.2
2017-Apr-30 10:53 053 17.2
2017-Apr-30 10:49 025 17.2
2017-Apr-30 10:43 280 17.8
2017-Apr-30 10:39 355 17.8
2017-Apr-30 10:33 351 0 gusting 5 17.8
2017-Apr-30 10:29 351 2 gusting 8 17.8
2017-Apr-30 10:25 350 3 gusting 9 17.8
2017-Apr-30 10:19 309 3 gusting 9 17.8
2017-Apr-30 10:14 329 3 gusting 8 17.8
2017-Apr-30 10:08 005 2 gusting 7 18.3
2017-Apr-30 10:04 344 1 gusting 4 18.3
2017-Apr-30 09:59 355 1 gusting 4 17.8
2017-Apr-30 09:54 18.3
2017-Apr-30 09:50 321 2 gusting 4 18.3
2017-Apr-30 09:44 299 2 gusting 4 18.3
2017-Apr-30 09:39 304 18.9
2017-Apr-30 09:33 305 1 gusting 4 18.9
2017-Apr-30 09:29 304 2 gusting 6 18.9
2017-Apr-30 09:23 281 1 gusting 6 18.9
2017-Apr-30 09:19 331 1 gusting 3 18.9
2017-Apr-30 09:15 337 2 gusting 6 18.9
2017-Apr-30 09:08 326 3 gusting 7 18.9
2017-Apr-30 09:04 337 4 gusting 8 18.9
2017-Apr-30 08:58 315 5 gusting 8 18.9
2017-Apr-30 08:54 311 5 gusting 8 18.9
2017-Apr-30 08:48 341 5 gusting 8 18.9
2017-Apr-30 08:44 005 4 gusting 7 18.9
2017-Apr-30 08:38 284 4 gusting 7 18.9
2017-Apr-30 08:34 288 3 gusting 7 18.3
2017-Apr-30 08:30 317 3 gusting 7 18.3
2017-Apr-30 08:24 341 2 gusting 6 18.3
2017-Apr-30 08:20 321 2 gusting 6 18.3
2017-Apr-30 08:13 312 1 gusting 3 18.3
2017-Apr-30 08:09 311 2 gusting 5 18.3
2017-Apr-30 08:03 306 3 gusting 6 17.8
2017-Apr-30 07:59 331 3 gusting 6 17.8
2017-Apr-30 07:53 306 2 gusting 6 17.8
2017-Apr-30 07:49 287 1 gusting 6 17.8
2017-Apr-30 07:44 317 1 gusting 6 17.8
2017-Apr-30 07:38 315 1 gusting 5 17.8
2017-Apr-30 07:34 284 0 gusting 5 17.8
2017-Apr-30 07:28 281 17.2
2017-Apr-30 07:24 017 17.2
2017-Apr-30 07:18 062 17.2
2017-Apr-30 07:14 062 17.2
2017-Apr-30 07:10 070 17.2
2017-Apr-30 07:03 071 17.2
2017-Apr-30 06:59 071 17.2
2017-Apr-30 06:53 071 17.2
2017-Apr-30 06:49 071 17.2
2017-Apr-30 06:43 072 17.2
2017-Apr-30 06:39 080 17.2
2017-Apr-30 06:33 068 17.2
2017-Apr-30 06:30 071 16.7
2017-Apr-30 06:23 082 16.7
2017-Apr-30 06:18 051 16.7
2017-Apr-30 06:14 056 16.7
2017-Apr-30 06:09 333 0 gusting 3 16.7
2017-Apr-30 06:04 330 2 gusting 6 16.1
2017-Apr-30 05:59 322 3 gusting 6 16.1
2017-Apr-30 05:54 329 1 gusting 6 16.1
2017-Apr-30 05:49 323 1 gusting 4 16.1
2017-Apr-30 05:44 308 0 gusting 4 16.1
2017-Apr-30 05:39 292 16.1
2017-Apr-30 05:33 294 16.1
2017-Apr-30 05:29 355 16.1
2017-Apr-30 05:23 013 16.1
2017-Apr-30 05:19 013 16.1
2017-Apr-30 05:13 017 16.1
2017-Apr-30 05:09 320 16.1
2017-Apr-30 05:05 012 0 gusting 3 16.1
2017-Apr-30 04:59 317 2 gusting 7 16.1
2017-Apr-30 04:54 315 2 gusting 7 16.1
2017-Apr-30 04:48 316 0 gusting 4 16.1
2017-Apr-30 04:44 336 16.1
2017-Apr-30 04:39 338 16.1
2017-Apr-30 04:34 338 16.1
2017-Apr-30 04:28 203 16.1
2017-Apr-30 04:24 205 16.1
2017-Apr-30 04:20 205 16.1
2017-Apr-30 04:14 203 16.1
2017-Apr-30 04:09 203 16.1
2017-Apr-30 04:04 202 16.1
2017-Apr-30 03:59 202 16.1
2017-Apr-30 03:53 203 16.1
2017-Apr-30 03:49 203 16.1
2017-Apr-30 03:43 203 16.1
2017-Apr-30 03:39 205 1 gusting 7 16.1
2017-Apr-30 03:33 207 2 gusting 7 16.1
2017-Apr-30 03:28 074 3 gusting 10 16.7
2017-Apr-30 03:25 044 3 gusting 10 16.7
2017-Apr-30 03:18 025 3 gusting 6 16.7
2017-Apr-30 03:14 040 2 gusting 9 16.7
2017-Apr-30 03:08 040 0 gusting 9 16.7
2017-Apr-30 03:04 093 16.7
2017-Apr-30 02:58 076 16.7
2017-Apr-30 02:54 075 16.1
2017-Apr-30 02:50 072 0 gusting 5 16.7
2017-Apr-30 02:45 355 16.7
2017-Apr-30 02:39 355 16.7
2017-Apr-30 02:34 340 16.7
2017-Apr-30 02:29 340 16.7
2017-Apr-30 02:24 219 16.7
2017-Apr-30 02:19 219 16.7
2017-Apr-30 02:14 219 16.7
2017-Apr-30 02:08 219 16.7
2017-Apr-30 02:04 219 16.7
2017-Apr-30 01:58 219 16.7
2017-Apr-30 01:54 219 16.7
2017-Apr-30 01:48 219 0 gusting 2 16.7
2017-Apr-30 01:44 218 1 gusting 6 16.7
2017-Apr-30 01:38 213 0 gusting 6 16.7
2017-Apr-30 01:34 226 16.7
2017-Apr-30 01:28 237 16.7
2017-Apr-30 01:24 236 16.7
2017-Apr-30 01:18 236 17.2
2017-Apr-30 01:14 236 17.2
2017-Apr-30 01:10 236 17.2
2017-Apr-30 01:04 235 0 gusting 4 17.2
2017-Apr-30 00:59 232 0 gusting 4 17.2
2017-Apr-30 00:53 238 16.7
2017-Apr-30 00:49 238 16.7
2017-Apr-30 00:43 238 16.7
2017-Apr-30 00:39 238 16.7
2017-Apr-30 00:33 238 16.7
2017-Apr-30 00:29 279 16.7
2017-Apr-30 00:23 279 16.7
2017-Apr-30 00:19 279 16.7
2017-Apr-30 00:13 280 16.7
2017-Apr-30 00:10 280 16.7
2017-Apr-30 00:03 279 16.7
2017-Apr-29 23:59 279 16.7
2017-Apr-29 23:55 279 16.7
2017-Apr-29 23:48 279 0 gusting 2 17.2
2017-Apr-29 23:44 279 0 gusting 3 17.2
2017-Apr-29 23:39 280 0 gusting 3 17.2
2017-Apr-29 23:34 277 0 gusting 5 17.2
2017-Apr-29 23:28 277 1 gusting 5 17.8
2017-Apr-29 23:24 290 0 gusting 3 17.8
2017-Apr-29 23:18 280 0 gusting 3 17.8
2017-Apr-29 23:14 047 17.8
2017-Apr-29 23:08 059 17.8
2017-Apr-29 23:04 059 17.8
2017-Apr-29 23:00 059 17.8
2017-Apr-29 22:54 059 17.8
2017-Apr-29 22:50 059 17.8
2017-Apr-29 22:44 059 17.8
2017-Apr-29 22:39 057 17.8
2017-Apr-29 22:33 053 17.8
2017-Apr-29 22:29 051 17.8
2017-Apr-29 22:23 049 17.8
2017-Apr-29 22:19 049 17.8
2017-Apr-29 22:13 049 17.8
2017-Apr-29 22:09 037 17.8
2017-Apr-29 22:03 037 17.8
2017-Apr-29 21:59 037 17.8
2017-Apr-29 21:54 032 17.8
2017-Apr-29 21:48 026 17.8
2017-Apr-29 21:44 026 17.8
2017-Apr-29 21:38 021 18.3
2017-Apr-29 21:34 021 18.3
2017-Apr-29 21:28 333 18.3
2017-Apr-29 21:24 333 18.3
2017-Apr-29 21:18 332 18.3
2017-Apr-29 21:13 332 18.3
2017-Apr-29 21:09 332 18.3
2017-Apr-29 21:03 332 18.3
2017-Apr-29 21:00 331 18.3
2017-Apr-29 20:54 332 18.3
2017-Apr-29 20:49 331 18.9
2017-Apr-29 20:43 330 18.9
2017-Apr-29 20:39 318 18.9
2017-Apr-29 20:33 318 18.9
2017-Apr-29 20:29 317 19.4
2017-Apr-29 20:25 317 0 gusting 3 19.4
2017-Apr-29 20:19 325 0 gusting 3 19.4
2017-Apr-29 20:14 236 20.0
2017-Apr-29 20:08 235 0 gusting 4 20.0
2017-Apr-29 20:04 235 0 gusting 4 20.0
2017-Apr-29 19:58 244 20.6
2017-Apr-29 19:54 292 1 gusting 6 20.6
2017-Apr-29 19:50 293 2 gusting 6 20.6
2017-Apr-29 19:43 336 1 gusting 5 20.6
2017-Apr-29 19:39 061 0 gusting 8 20.6
2017-Apr-29 19:33 064 2 gusting 8 20.6
2017-Apr-29 19:29 063 2 gusting 8 20.6
2017-Apr-29 19:23 077 2 gusting 10 20.6
2017-Apr-29 19:19 040 1 gusting 10 20.6
2017-Apr-29 19:13 082 0 gusting 4 20.0
2017-Apr-29 19:09 207 20.0
2017-Apr-29 19:05 171 20.0
2017-Apr-29 18:59 115 20.0
2017-Apr-29 18:55 210 0 gusting 3 20.0
2017-Apr-29 18:48 200 1 gusting 4 20.0
2017-Apr-29 18:44 199 0 gusting 5 20.0
2017-Apr-29 18:39 175 3 gusting 12 19.4
2017-Apr-29 18:35 078 5 gusting 12 19.4
2017-Apr-29 18:28 078 3 gusting 10 19.4
2017-Apr-29 18:25 046 3 gusting 7 19.4
2017-Apr-29 18:18 061 19.4
2017-Apr-29 18:14 121 19.4
2017-Apr-29 18:09 174 19.4
2017-Apr-29 18:04 174 20.0
2017-Apr-29 17:58 176 20.0
2017-Apr-29 17:54 176 20.0
2017-Apr-29 17:48 176 20.6
2017-Apr-29 17:44 175 20.6
2017-Apr-29 17:39 175 20.0
2017-Apr-29 17:34 175 20.6
2017-Apr-29 17:29 175 20.6
2017-Apr-29 17:25 175 20.6
2017-Apr-29 17:20 175 20.6
2017-Apr-29 17:15 175 20.6
2017-Apr-29 17:10 175 20.6
2017-Apr-29 17:05 175 20.6
2017-Apr-29 16:59 175 20.6
2017-Apr-29 16:55 175 20.6
2017-Apr-29 16:50 175 21.1
2017-Apr-29 16:45 175 21.1
2017-Apr-29 16:40 205 0 gusting 5 21.1
2017-Apr-29 16:35 205 0 gusting 5 21.1
2017-Apr-29 16:29 196 21.7
2017-Apr-29 16:24 155 21.7
2017-Apr-29 16:20 126 21.7
2017-Apr-29 16:14 123 21.7
2017-Apr-29 16:09 115 21.7
2017-Apr-29 16:04 115 21.7
2017-Apr-29 15:59 116 21.7
2017-Apr-29 15:54 117 21.7
2017-Apr-29 15:49 119 21.7
2017-Apr-29 15:44 119 22.2
2017-Apr-29 15:40 128 22.2
2017-Apr-29 15:34 128 0 gusting 3 22.2
2017-Apr-29 15:29 123 22.8
2017-Apr-29 15:25 181 22.2
2017-Apr-29 15:19 182 22.8
2017-Apr-29 15:14 182 22.8
2017-Apr-29 15:10 182 22.8
2017-Apr-29 15:04 182 22.8
2017-Apr-29 14:59 183 22.8
2017-Apr-29 14:54 183 22.8
2017-Apr-29 14:49 183 22.8
2017-Apr-29 14:44 183 22.8
2017-Apr-29 14:39 182 22.8
2017-Apr-29 14:35 180 22.8
2017-Apr-29 14:29 165 0 gusting 5 23.3
2017-Apr-29 14:25 164 1 gusting 5 23.3
2017-Apr-29 14:19 186 0 gusting 5 23.3
2017-Apr-29 14:15 180 0 gusting 4 23.3
2017-Apr-29 14:09 182 0 gusting 4 23.3
2017-Apr-29 14:04 177 23.3
2017-Apr-29 13:58 171 23.3
2017-Apr-29 13:54 171 23.9
2017-Apr-29 13:50 173 23.9
2017-Apr-29 13:44 170 23.9
2017-Apr-29 13:39 169 23.9
2017-Apr-29 13:34 172 0 gusting 5 23.9
2017-Apr-29 13:29 163 0 gusting 5 23.9
2017-Apr-29 13:23 195 0 gusting 4 23.9
2017-Apr-29 13:19 196 1 gusting 5 23.9
2017-Apr-29 13:13 153 1 gusting 5 23.9
2017-Apr-29 13:09 155 1 gusting 6 23.9
2017-Apr-29 13:03 155 2 gusting 6 23.9
2017-Apr-29 12:59 146 2 gusting 6 23.9
2017-Apr-29 12:53 172 2 gusting 6 24.4
2017-Apr-29 12:49 173 3 gusting 8 24.4
2017-Apr-29 12:44 121 3 gusting 8 24.4
2017-Apr-29 12:38 146 3 gusting 8 24.4
2017-Apr-29 12:34 150 3 gusting 8 24.4
2017-Apr-29 12:28 155 1 gusting 8 25.0
2017-Apr-29 12:24 161 2 gusting 4 25.0
2017-Apr-29 12:18 163 1 gusting 6 25.0
2017-Apr-29 12:14 160 1 gusting 6 25.0
2017-Apr-29 12:10 200 1 gusting 5 25.0
2017-Apr-29 12:04 200 0 gusting 5 25.0
2017-Apr-29 12:00 176 0 gusting 4 25.0
2017-Apr-29 11:54 179 1 gusting 4 25.0
2017-Apr-29 11:50 186 1 gusting 5 24.4
2017-Apr-29 11:44 221 1 gusting 5 24.4
2017-Apr-29 11:39 204 1 gusting 4 24.4
2017-Apr-29 11:33 197 1 gusting 5 24.4
2017-Apr-29 11:29 210 1 gusting 5 24.4
2017-Apr-29 11:23 223 1 gusting 4 24.4
2017-Apr-29 11:19 222 1 gusting 4 24.4
2017-Apr-29 11:13 219 0 gusting 5 24.4
2017-Apr-29 11:09 223 24.4
2017-Apr-29 11:04 209 0 gusting 4 23.9
2017-Apr-29 10:58 209 1 gusting 4 23.9
2017-Apr-29 10:54 211 1 gusting 4 23.9
2017-Apr-29 10:48 194 0 gusting 4 23.9
2017-Apr-29 10:44 178 23.9
2017-Apr-29 10:38 180 0 gusting 2 23.3
2017-Apr-29 10:34 211 0 gusting 3 23.3
2017-Apr-29 10:28 211 1 gusting 5 23.3
2017-Apr-29 10:24 207 0 gusting 5 23.3
2017-Apr-29 10:20 192 23.3
2017-Apr-29 10:14 222 23.3
2017-Apr-29 10:08 223 0 gusting 4 23.3
2017-Apr-29 10:04 222 1 gusting 4 22.8
2017-Apr-29 10:00 225 0 gusting 4 22.8
2017-Apr-29 09:54 230 22.8
2017-Apr-29 09:50 230 22.8
2017-Apr-29 09:44 229 0 gusting 5 22.8
2017-Apr-29 09:39 229 0 gusting 5 22.2
2017-Apr-29 09:34 212 0 gusting 4 22.2
2017-Apr-29 09:29 211 0 gusting 4 22.2
2017-Apr-29 09:23 210 22.2
2017-Apr-29 09:20 209 22.2
2017-Apr-29 09:13 210 22.2
2017-Apr-29 09:09 210 22.2
2017-Apr-29 09:03 210 0 gusting 3 22.2
2017-Apr-29 08:59 210 0 gusting 3 22.2
2017-Apr-29 08:53 211 0 gusting 3 22.2
2017-Apr-29 08:49 210 0 gusting 3 22.2
2017-Apr-29 08:43 210 0 gusting 4 22.2
2017-Apr-29 08:39 209 0 gusting 4 22.2
2017-Apr-29 08:33 202 1 gusting 5 22.2
2017-Apr-29 08:29 184 1 gusting 5 22.2
2017-Apr-29 08:22 175 0 gusting 5 22.2
2017-Apr-29 08:19 193 0 gusting 5 21.7
2017-Apr-29 08:15 233 21.7
2017-Apr-29 08:10 235 0 gusting 5 21.7
2017-Apr-29 08:04 234 1 gusting 5 21.7
2017-Apr-29 07:59 223 1 gusting 5 21.7
2017-Apr-29 07:54 225 1 gusting 3 21.7
2017-Apr-29 07:49 225 0 gusting 4 21.7
2017-Apr-29 07:44 225 21.7
2017-Apr-29 07:39 170 21.1
2017-Apr-29 07:34 168 21.1
2017-Apr-29 07:29 188 20.6
2017-Apr-29 07:24 190 20.6
2017-Apr-29 07:19 191 20.6
2017-Apr-29 07:14 190 20.0
2017-Apr-29 07:09 190 20.0
2017-Apr-29 07:04 107 20.0
2017-Apr-29 06:59 107 19.4
2017-Apr-29 06:54 107 19.4
2017-Apr-29 06:49 107 19.4
2017-Apr-29 06:44 106 18.9
2017-Apr-29 06:39 045 18.9
2017-Apr-29 06:34 018 18.3
2017-Apr-29 06:29 009 17.8
2017-Apr-29 06:24 009 17.8
2017-Apr-29 06:19 263 17.2
2017-Apr-29 06:14 263 17.2
2017-Apr-29 06:10 263 16.7
2017-Apr-29 06:04 263 1 gusting 5 16.7
2017-Apr-29 05:59 263 2 gusting 5 16.7
2017-Apr-29 05:54 272 0 gusting 5 16.7
2017-Apr-29 05:49 274 0 gusting 3 16.7
2017-Apr-29 05:44 274 0 gusting 3 16.1
2017-Apr-29 05:39 272 0 gusting 3 16.1
2017-Apr-29 05:34 272 0 gusting 3 16.1
2017-Apr-29 05:29 272 1 gusting 5 15.6
2017-Apr-29 05:25 272 2 gusting 6 15.6
2017-Apr-29 05:19 287 1 gusting 6 15.6
2017-Apr-29 05:14 293 0 gusting 5 15.6
2017-Apr-29 05:09 141 15.6
2017-Apr-29 05:04 067 15.6
2017-Apr-29 04:59 067 15.0
2017-Apr-29 04:54 066 15.0
2017-Apr-29 04:50 066 14.4
2017-Apr-29 04:44 065 14.4
2017-Apr-29 04:40 066 14.4
2017-Apr-29 04:34 061 13.9
2017-Apr-29 04:29 055 13.9
2017-Apr-29 04:23 349 13.3
2017-Apr-29 04:19 304 13.3
2017-Apr-29 04:13 303 13.3
2017-Apr-29 04:09 304 13.3
2017-Apr-29 04:03 303 13.3
2017-Apr-29 03:59 303 13.3
2017-Apr-29 03:53 304 13.3
2017-Apr-29 03:49 304 13.3
2017-Apr-29 03:43 303 13.3
2017-Apr-29 03:39 303 12.8
2017-Apr-29 03:35 304 12.8
2017-Apr-29 03:28 304 12.8
2017-Apr-29 03:24 303 12.8
2017-Apr-29 03:18 304 12.8
2017-Apr-29 03:14 304 0 gusting 3 12.8
2017-Apr-29 03:08 303 1 gusting 4 12.8
2017-Apr-29 03:04 303 2 gusting 4 13.3
2017-Apr-29 03:00 299 2 gusting 3 13.3
2017-Apr-29 02:54 302 1 gusting 6 13.3
2017-Apr-29 02:49 302 1 gusting 6 13.3
2017-Apr-29 02:43 302 0 gusting 6 13.3
2017-Apr-29 02:39 301 0 gusting 3 13.3
2017-Apr-29 02:33 298 13.9
2017-Apr-29 02:29 300 13.9
2017-Apr-29 02:23 299 13.9
2017-Apr-29 02:19 299 13.9
2017-Apr-29 02:13 300 0 gusting 6 13.9
2017-Apr-29 02:09 303 0 gusting 6 13.9
2017-Apr-29 02:03 306 0 gusting 3 13.9
2017-Apr-29 01:59 314 13.9
2017-Apr-29 01:53 316 13.9
2017-Apr-29 01:49 316 13.9
2017-Apr-29 01:45 315 13.9
2017-Apr-29 01:39 316 13.9
2017-Apr-29 01:35 315 0 gusting 4 13.9
2017-Apr-29 01:28 316 1 gusting 4 13.9
2017-Apr-29 01:24 309 0 gusting 4 13.9
2017-Apr-29 01:18 300 13.9
2017-Apr-29 01:14 299 13.9
2017-Apr-29 01:08 300 13.9
2017-Apr-29 01:04 299 13.9
2017-Apr-29 00:58 300 13.9
2017-Apr-29 00:54 300 0 gusting 4 13.9
2017-Apr-29 00:49 300 13.9
2017-Apr-29 00:44 283 14.4
2017-Apr-29 00:38 283 14.4
2017-Apr-29 00:34 295 13.9
2017-Apr-29 00:30 295 14.4
2017-Apr-29 00:23 294 14.4
2017-Apr-29 00:19 294 0 gusting 4 14.4
2017-Apr-29 00:13 294 0 gusting 4 14.4
2017-Apr-29 00:09 249 14.4
2017-Apr-29 00:04 249 14.4
2017-Apr-28 23:59 249 14.4
2017-Apr-28 23:53 249 14.4
2017-Apr-28 23:49 249 14.4
2017-Apr-28 23:43 249 14.4
2017-Apr-28 23:39 249 14.4
2017-Apr-28 23:35 249 14.4
2017-Apr-28 23:28 249 14.4
2017-Apr-28 23:24 249 14.4
2017-Apr-28 23:18 248 0 gusting 2 14.4
2017-Apr-28 23:14 249 0 gusting 3 14.4
2017-Apr-28 23:08 248 15.0
2017-Apr-28 23:04 242 15.0
2017-Apr-28 23:00 240 15.0
2017-Apr-28 22:54 215 15.0
2017-Apr-28 22:49 210 15.0
2017-Apr-28 22:44 205 15.6
2017-Apr-28 22:39 205 15.6
2017-Apr-28 22:33 205 15.6
2017-Apr-28 22:29 205 15.6
2017-Apr-28 22:23 205 15.6
2017-Apr-28 22:19 205 16.1
2017-Apr-28 22:13 205 16.1
2017-Apr-28 22:09 205 16.1
2017-Apr-28 22:03 202 16.7
2017-Apr-28 21:59 196 16.7
2017-Apr-28 21:53 175 16.7
2017-Apr-28 21:49 175 16.7
2017-Apr-28 21:45 175 17.2
2017-Apr-28 21:39 175 17.2
2017-Apr-28 21:35 174 17.2
2017-Apr-28 21:30 174 17.2
2017-Apr-28 21:24 174 17.2
2017-Apr-28 21:19 173 17.2
2017-Apr-28 21:14 173 17.2
2017-Apr-28 21:09 173 17.2
2017-Apr-28 21:04 174 17.2
2017-Apr-28 20:59 173 17.2
2017-Apr-28 20:54 174 17.2
2017-Apr-28 20:49 174 17.2
2017-Apr-28 20:44 174 17.2
2017-Apr-28 20:39 174 17.2
2017-Apr-28 20:33 174 17.2
2017-Apr-28 20:30 173 17.2
2017-Apr-28 20:25 174 17.2
2017-Apr-28 20:19 174 17.8
2017-Apr-28 20:14 173 17.8
2017-Apr-28 20:09 173 17.8
2017-Apr-28 20:05 174 17.8
2017-Apr-28 19:59 174 17.8
2017-Apr-28 19:54 173 17.8
2017-Apr-28 19:50 173 17.8
2017-Apr-28 19:44 174 17.8
2017-Apr-28 19:40 174 18.3
2017-Apr-28 19:34 173 18.3
2017-Apr-28 19:29 134 18.3
2017-Apr-28 19:24 129 18.3
2017-Apr-28 19:20 129 18.3
2017-Apr-28 19:14 128 18.3
2017-Apr-28 19:09 129 18.3
2017-Apr-28 19:04 129 18.3
2017-Apr-28 18:59 129 18.3
2017-Apr-28 18:54 129 18.3
2017-Apr-28 18:49 128 18.3
2017-Apr-28 18:44 129 18.3
2017-Apr-28 18:39 129 0 gusting 6 18.3
2017-Apr-28 18:34 129 0 gusting 6 18.3
2017-Apr-28 18:29 127 0 gusting 2 18.3
2017-Apr-28 18:24 128 0 gusting 2 18.3
2017-Apr-28 18:19 130 0 gusting 4 18.3
2017-Apr-28 18:14 129 0 gusting 4 18.3
2017-Apr-28 18:09 164 18.3
2017-Apr-28 18:05 176 18.9